createdAt,value
2023-11-24T00:00:19.284Z,4.78
2023-11-24T00:05:48.918Z,4.62
2023-11-24T00:10:59.986Z,4.46
2023-11-24T00:16:11.460Z,4.39
2023-11-24T00:21:21.625Z,4.41
2023-11-24T00:26:31.659Z,4.44
2023-11-24T00:31:41.211Z,4.49
2023-11-24T00:36:50.991Z,4.55
2023-11-24T00:42:01.894Z,4.62
2023-11-24T00:47:12.259Z,4.70
2023-11-24T00:52:22.105Z,4.69
2023-11-24T00:57:31.878Z,4.59
2023-11-24T01:02:41.646Z,4.45
2023-11-24T01:07:51.639Z,4.39
2023-11-24T01:13:01.238Z,4.33
2023-11-24T01:18:11.837Z,4.29
2023-11-24T01:23:22.294Z,4.27
2023-11-24T01:28:31.868Z,4.25
2023-11-24T01:33:41.593Z,4.24
2023-11-24T01:38:52.095Z,4.26
2023-11-24T01:44:06.022Z,4.29
2023-11-24T01:49:16.031Z,4.31
2023-11-24T01:54:27.597Z,4.36
2023-11-24T01:59:39.078Z,4.40
2023-11-24T02:04:48.726Z,4.42
2023-11-24T02:09:58.502Z,4.42
2023-11-24T02:15:11.380Z,4.38
2023-11-24T02:20:21.493Z,3.82
2023-11-24T02:25:31.086Z,3.21
2023-11-24T02:30:41.299Z,2.88
2023-11-24T02:35:51.157Z,2.69
2023-11-24T02:41:01.676Z,2.56
2023-11-24T02:46:15.201Z,2.50
2023-11-24T02:51:25.877Z,2.39
2023-11-24T02:56:35.603Z,2.31
2023-11-24T03:01:45.277Z,2.30
2023-11-24T03:06:55.223Z,2.26
2023-11-24T03:12:05.396Z,2.20
2023-11-24T03:17:14.881Z,2.18
2023-11-24T03:22:24.592Z,2.19
2023-11-24T03:27:34.512Z,2.18
2023-11-24T03:32:44.103Z,2.27
2023-11-24T03:37:53.826Z,2.43
2023-11-24T03:43:04.208Z,2.62
2023-11-24T03:48:21.046Z,2.79
2023-11-24T03:53:30.974Z,2.81
2023-11-24T03:58:40.479Z,2.76
2023-11-24T04:03:53.048Z,2.77
2023-11-24T04:09:02.794Z,2.81
2023-11-24T04:14:12.376Z,2.85
2023-11-24T04:19:22.056Z,2.89
2023-11-24T04:24:31.962Z,2.95
2023-11-24T04:29:42.119Z,2.97
2023-11-24T04:34:51.806Z,2.96
2023-11-24T04:40:01.712Z,2.95
2023-11-24T04:45:14.020Z,2.96
2023-11-24T04:50:24.011Z,2.97
2023-11-24T04:55:34.574Z,2.93
2023-11-24T05:00:44.218Z,2.89
2023-11-24T05:05:53.807Z,2.84
2023-11-24T05:11:03.909Z,2.86
2023-11-24T05:16:14.093Z,2.88
2023-11-24T05:21:23.739Z,2.88
2023-11-24T05:26:34.048Z,2.90
2023-11-24T05:31:43.701Z,2.93
2023-11-24T05:36:53.310Z,2.95
2023-11-24T05:42:05.579Z,2.95
2023-11-24T05:47:15.336Z,2.91
2023-11-24T05:52:25.170Z,2.87
2023-11-24T05:57:35.398Z,2.89
2023-11-24T06:02:45.067Z,2.92
2023-11-24T06:07:56.446Z,2.90
2023-11-24T06:13:07.966Z,2.87
2023-11-24T06:18:18.021Z,2.85
2023-11-24T06:23:27.550Z,2.85
2023-11-24T06:28:37.236Z,2.84
2023-11-24T06:33:47.365Z,2.83
2023-11-24T06:38:57.234Z,2.81
2023-11-24T06:44:07.849Z,2.77
2023-11-24T06:49:18.893Z,2.76
2023-11-24T06:54:29.121Z,2.75
2023-11-24T06:59:39.536Z,2.76
2023-11-24T07:04:51.168Z,2.84
2023-11-24T07:10:02.875Z,2.92
2023-11-24T07:15:14.814Z,2.93
2023-11-24T07:20:25.008Z,2.96
2023-11-24T07:25:34.773Z,3.03
2023-11-24T07:30:44.797Z,3.11
2023-11-24T07:35:54.406Z,3.24
2023-11-24T07:41:06.162Z,3.34
2023-11-24T07:46:15.971Z,3.40
2023-11-24T07:51:26.139Z,3.40
2023-11-24T07:56:38.074Z,3.36
2023-11-24T08:01:48.061Z,3.37
2023-11-24T08:06:57.853Z,3.38
2023-11-24T08:12:12.360Z,3.32
2023-11-24T08:17:23.849Z,3.19
2023-11-24T08:22:33.758Z,3.00
2023-11-24T08:27:46.175Z,2.75
2023-11-24T08:32:56.087Z,2.46
2023-11-24T08:38:06.376Z,2.09
2023-11-24T08:43:16.363Z,1.76
2023-11-24T08:48:26.417Z,1.61
2023-11-24T08:53:36.390Z,1.65
2023-11-24T08:58:46.120Z,1.70
2023-11-24T09:03:56.038Z,1.72
2023-11-24T09:09:08.663Z,1.76
2023-11-24T09:14:18.767Z,1.82
2023-11-24T09:19:28.364Z,1.87
2023-11-24T09:24:38.140Z,1.90
2023-11-24T09:29:49.271Z,1.93
2023-11-24T09:34:59.479Z,2.11
2023-11-24T09:40:18.073Z,2.24
2023-11-24T09:45:28.669Z,2.28
2023-11-24T09:50:41.117Z,2.36
2023-11-24T09:55:50.826Z,2.41
2023-11-24T10:01:09.120Z,2.43
2023-11-24T10:06:19.296Z,2.44
2023-11-24T10:11:34.879Z,2.45
2023-11-24T10:16:45.269Z,2.45
2023-11-24T10:21:57.432Z,2.46
2023-11-24T10:27:23.788Z,2.43
2023-11-24T10:32:33.579Z,2.38
2023-11-24T10:37:43.893Z,2.39
2023-11-24T10:42:58.679Z,2.49
2023-11-24T10:48:22.240Z,2.55
2023-11-24T10:53:38.568Z,2.64
2023-11-24T10:58:53.624Z,2.77
2023-11-24T11:04:04.457Z,2.84
2023-11-24T11:09:31.118Z,2.84
2023-11-24T11:14:41.504Z,2.76
2023-11-24T11:20:06.933Z,2.90
2023-11-24T11:25:44.896Z,2.92
2023-11-24T11:30:59.012Z,2.88
2023-11-24T11:36:13.216Z,2.85
2023-11-24T11:41:46.168Z,2.78
2023-11-24T11:47:26.283Z,2.70
2023-11-24T11:52:36.976Z,2.67
2023-11-24T11:57:53.482Z,2.71
2023-11-24T12:03:06.630Z,2.78
2023-11-24T12:08:19.005Z,2.88
2023-11-24T12:13:30.378Z,3.03
2023-11-24T12:18:40.305Z,3.14
2023-11-24T12:23:50.824Z,3.19
2023-11-24T12:29:04.291Z,3.26
2023-11-24T12:34:24.020Z,3.29
2023-11-24T12:39:35.751Z,3.43
2023-11-24T12:44:45.584Z,3.52
2023-11-24T12:50:08.655Z,3.51
2023-11-24T12:55:19.923Z,3.51
2023-11-24T13:00:30.337Z,3.43
2023-11-24T13:05:40.675Z,3.26
2023-11-24T13:10:54.688Z,3.11
2023-11-24T13:16:06.772Z,3.00
2023-11-24T13:21:16.970Z,2.93
2023-11-24T13:26:27.418Z,2.87
2023-11-24T13:31:42.834Z,2.83
2023-11-24T13:36:52.744Z,2.79
2023-11-24T13:42:02.470Z,2.76
2023-11-24T13:47:14.630Z,2.77
2023-11-24T13:52:24.656Z,2.76
2023-11-24T13:57:34.906Z,2.77
2023-11-24T14:02:46.812Z,2.77
2023-11-24T14:07:56.708Z,2.76
2023-11-24T14:13:07.388Z,2.74
2023-11-24T14:18:17.148Z,2.68
2023-11-24T14:23:27.128Z,2.59
2023-11-24T14:28:37.718Z,2.49
2023-11-24T14:33:47.383Z,2.41
2023-11-24T14:38:58.193Z,2.34
2023-11-24T14:44:09.688Z,2.29
2023-11-24T14:49:19.849Z,2.23
2023-11-24T14:54:31.442Z,2.16
2023-11-24T14:59:41.320Z,2.12
2023-11-24T15:04:51.180Z,2.08
2023-11-24T15:10:01.246Z,2.07
2023-11-24T15:15:13.592Z,2.07
2023-11-24T15:20:27.500Z,2.05
2023-11-24T15:25:49.602Z,2.01
2023-11-24T15:31:01.288Z,1.94
2023-11-24T15:36:14.640Z,1.86
2023-11-24T15:41:37.404Z,1.79
2023-11-24T15:46:47.480Z,1.75
2023-11-24T15:51:59.709Z,1.72
2023-11-24T15:57:11.522Z,1.67
2023-11-24T16:02:26.802Z,1.63
2023-11-24T16:07:36.701Z,1.61
2023-11-24T16:12:50.077Z,1.60
2023-11-24T16:18:00.469Z,1.58
2023-11-24T16:23:10.391Z,1.55
2023-11-24T16:28:20.141Z,1.53
2023-11-24T16:33:30.704Z,1.51
2023-11-24T16:38:41.148Z,1.49
2023-11-24T16:43:50.913Z,1.47
2023-11-24T16:49:00.565Z,1.45
2023-11-24T16:54:11.196Z,1.42
2023-11-24T16:59:22.128Z,1.39
2023-11-24T17:04:32.172Z,1.37
2023-11-24T17:09:43.036Z,1.36
2023-11-24T17:14:53.512Z,1.37
2023-11-24T17:20:03.517Z,1.41
2023-11-24T17:25:21.535Z,1.43
2023-11-24T17:30:38.204Z,1.45
2023-11-24T17:35:49.170Z,1.47
2023-11-24T17:40:59.605Z,1.50
2023-11-24T17:46:09.631Z,1.54
2023-11-24T17:51:19.708Z,1.58
2023-11-24T17:56:29.568Z,1.60
2023-11-24T18:01:39.941Z,1.65
2023-11-24T18:06:49.926Z,1.69
2023-11-24T18:11:59.915Z,1.70
2023-11-24T18:17:10.502Z,1.67
2023-11-24T18:22:20.692Z,1.65
2023-11-24T18:27:30.401Z,1.65
2023-11-24T18:32:40.642Z,1.63
2023-11-24T18:37:50.553Z,1.60
2023-11-24T18:43:01.292Z,1.62
2023-11-24T18:48:12.071Z,1.63
2023-11-24T18:53:21.724Z,1.65
2023-11-24T18:58:31.557Z,1.71
2023-11-24T19:03:41.254Z,1.78
2023-11-24T19:08:52.449Z,1.82
2023-11-24T19:14:03.093Z,1.84
2023-11-24T19:19:13.430Z,1.88
2023-11-24T19:24:23.110Z,2.05
2023-11-24T19:29:32.925Z,2.04
2023-11-24T19:34:42.835Z,1.97
2023-11-24T19:39:52.425Z,1.91
2023-11-24T19:45:02.548Z,1.85
2023-11-24T19:50:13.578Z,1.76
2023-11-24T19:55:23.609Z,1.67
2023-11-24T20:00:33.296Z,1.63
2023-11-24T20:05:42.969Z,1.63
2023-11-24T20:10:54.308Z,1.60
2023-11-24T20:16:04.078Z,1.59
2023-11-24T20:21:14.355Z,1.61
2023-11-24T20:26:24.606Z,1.64
2023-11-24T20:31:34.944Z,1.65
2023-11-24T20:36:45.297Z,1.64
2023-11-24T20:41:56.263Z,1.63
2023-11-24T20:47:06.127Z,1.63
2023-11-24T20:52:17.071Z,1.62
2023-11-24T20:57:26.940Z,1.62
2023-11-24T21:02:36.695Z,1.61
2023-11-24T21:07:46.412Z,1.62
2023-11-24T21:12:56.104Z,1.61
2023-11-24T21:18:06.945Z,1.59
2023-11-24T21:23:16.914Z,1.57
2023-11-24T21:28:27.233Z,1.56
2023-11-24T21:33:38.419Z,1.56
2023-11-24T21:38:48.049Z,1.56
2023-11-24T21:43:57.642Z,1.56
2023-11-24T21:49:08.152Z,1.57
2023-11-24T21:54:17.758Z,1.59
2023-11-24T21:59:28.043Z,1.59
2023-11-24T22:04:37.672Z,1.57
2023-11-24T22:09:47.238Z,1.56
2023-11-24T22:14:58.433Z,1.56
2023-11-24T22:20:12.230Z,1.56
2023-11-24T22:25:22.674Z,1.58
2023-11-24T22:30:32.820Z,1.60
2023-11-24T22:35:43.353Z,1.62
2023-11-24T22:40:53.028Z,1.61
2023-11-24T22:46:03.855Z,1.60
2023-11-24T22:51:20.743Z,1.61
2023-11-24T22:56:31.081Z,1.62
2023-11-24T23:01:41.278Z,1.64
2023-11-24T23:06:51.061Z,1.64
2023-11-24T23:12:00.755Z,1.62
2023-11-24T23:17:12.070Z,1.64
2023-11-24T23:22:31.201Z,1.66
2023-11-24T23:27:46.174Z,1.68
2023-11-24T23:33:03.489Z,1.67
2023-11-24T23:38:21.747Z,1.67
2023-11-24T23:43:31.633Z,1.67
2023-11-24T23:48:41.500Z,1.67
2023-11-24T23:53:51.037Z,1.67
2023-11-24T23:59:01.287Z,1.64
